Time;durP1;ratioP1;P1;durP2;ratioP2;P2;SDS_P1;SDS_P2;PMS_P1;PMS_P2;Temp;Humidity;BMP_temperature;BMP_pressure;BME280_temperature;BME280_humidity;BME280_pressure;Samples;Min_cycle;Max_cycle;Signal;HPM_P1;HPM_P2
2022/07/07 04:49:00;;;;;;;3.90;3.60;;;;;;;18.04;67.98;100635.25;5555548;32;223918;-86
2022/07/07 04:52:03;;;;;;;8.63;3.67;;;;;;;18.04;67.98;100635.25;5563026;32;33542;-86
2022/07/07 04:55:07;;;;;;;5.60;3.75;;;;;;;17.74;68.56;100634.81;5564787;32;33695;-86
2022/07/07 04:58:10;;;;;;;5.05;4.07;;;;;;;17.95;67.95;100642.19;5563263;32;34453;-86
2022/07/07 05:01:12;;;;;;;4.62;3.37;;;;;;;17.95;68.53;100641.34;5563566;32;34047;-86
2022/07/07 05:04:15;;;;;;;9.60;3.87;;;;;;;18.25;68.27;100640.81;5563475;32;34917;-86
2022/07/07 05:07:18;;;;;;;4.65;4.15;;;;;;;18.51;67.24;100639.75;5563896;32;33856;-86
2022/07/07 05:10:21;;;;;;;5.55;3.90;;;;;;;18.69;67.09;100643.66;5563397;32;33686;-85
2022/07/07 05:13:24;;;;;;;4.10;3.80;;;;;;;18.85;66.83;100639.72;5563302;32;33822;-86
2022/07/07 05:16:29;;;;;;;4.40;3.90;;;;;;;19.16;65.19;100647.16;5563439;32;33640;-86
2022/07/07 05:19:31;;;;;;;3.87;3.55;;;;;;;19.40;63.38;100646.97;5564413;32;33933;-86
2022/07/07 05:22:34;;;;;;;4.80;3.75;;;;;;;20.23;60.28;100645.47;5563682;32;34383;-86
2022/07/07 05:25:37;;;;;;;6.43;3.28;;;;;;;21.92;52.04;100640.34;5567075;32;33657;-86
2022/07/07 05:28:42;;;;;;;3.47;3.17;;;;;;;25.08;44.05;100640.69;5563940;32;35088;-86
2022/07/07 05:31:45;;;;;;;2.85;2.65;;;;;;;27.90;36.92;100634.41;5564788;32;33616;-86
2022/07/07 05:34:48;;;;;;;2.67;2.53;;;;;;;29.86;33.68;100634.06;5566472;32;33988;-87
2022/07/07 05:37:50;;;;;;;2.97;2.20;;;;;;;31.54;29.83;100634.06;5577195;32;34152;-87
2022/07/07 05:40:53;;;;;;;3.17;2.35;;;;;;;33.05;27.78;100638.00;5574443;32;33561;-89
2022/07/07 05:43:55;;;;;;;2.60;2.40;;;;;;;33.77;26.90;100636.03;5564318;32;35255;-91
2022/07/07 05:46:58;;;;;;;4.53;2.20;;;;;;;34.98;24.92;100633.87;5564317;32;33788;-91
2022/07/07 05:50:01;;;;;;;3.37;2.15;;;;;;;35.89;24.24;100637.59;5557680;32;33906;-91
2022/07/07 05:53:04;;;;;;;2.90;2.00;;;;;;;36.11;23.80;100634.25;5563925;32;35005;-91
2022/07/07 05:56:07;;;;;;;1.98;1.87;;;;;;;35.99;24.05;100631.50;5556206;32;34288;-89
2022/07/07 05:59:09;;;;;;;6.25;2.55;;;;;;;36.92;22.29;100630.72;5564587;32;35212;-89
2022/07/07 06:02:12;;;;;;;2.80;2.12;;;;;;;36.56;22.27;100643.78;5555301;32;33963;-88
2022/07/07 06:05:16;;;;;;;3.08;2.15;;;;;;;36.73;21.92;100638.34;5554489;32;34278;-89
2022/07/07 06:08:19;;;;;;;2.40;2.08;;;;;;;36.10;21.83;100630.66;5562411;32;34295;-89
2022/07/07 06:11:21;;;;;;;5.62;2.22;;;;;;;37.26;20.95;100634.66;5560059;32;32585;-89
2022/07/07 06:14:28;;;;;;;4.55;2.20;;;;;;;37.72;19.90;100626.31;5552399;32;35157;-89
2022/07/07 06:17:31;;;;;;;2.53;2.33;;;;;;;37.27;20.68;100630.81;5550634;32;34802;-89
2022/07/07 06:20:54;;;;;;;2.80;2.20;;;;;;;37.33;20.02;100635.34;5551486;32;34634;-89
2022/07/07 06:23:57;;;;;;;2.20;2.00;;;;;;;37.47;20.36;100633.94;5550778;32;34195;-88
2022/07/07 06:26:59;;;;;;;4.93;2.40;;;;;;;36.98;20.23;100628.88;5550018;32;33907;-89
2022/07/07 06:33:39;;;;;;;3.95;1.83;;;;;;;38.27;18.87;100630.16;5568930;32;20111;-89
2022/07/07 06:36:42;;;;;;;2.78;2.08;;;;;;;37.47;19.44;100635.84;5571322;32;34833;-90
2022/07/07 06:39:44;;;;;;;3.22;2.17;;;;;;;35.65;21.22;100631.22;5623821;26;33621;-89
2022/07/07 06:42:47;;;;;;;3.28;2.00;;;;;;;35.43;21.40;100624.34;5607933;26;34189;-89
2022/07/07 06:45:55;;;;;;;3.90;2.20;;;;;;;33.82;23.35;100625.19;5571908;32;34802;-89
2022/07/07 06:48:58;;;;;;;4.97;1.98;;;;;;;32.39;23.67;100627.00;5555974;32;34412;-89
2022/07/07 06:52:00;;;;;;;5.07;2.35;;;;;;;30.42;28.31;100621.44;5550050;32;33968;-89
2022/07/07 06:55:05;;;;;;;2.47;2.28;;;;;;;29.43;28.22;100616.69;5592094;26;33784;-88
2022/07/07 06:58:13;;;;;;;2.80;2.08;;;;;;;29.93;27.58;100617.75;5568799;32;34713;-88
2022/07/07 07:01:16;;;;;;;2.50;2.20;;;;;;;29.83;27.47;100618.91;5554194;32;32534;-89
2022/07/07 07:04:19;;;;;;;6.80;2.67;;;;;;;30.76;27.00;100619.72;5569053;32;34150;-89
2022/07/07 07:07:22;;;;;;;5.00;2.50;;;;;;;30.20;26.83;100617.94;5568886;32;33906;-87
2022/07/07 07:10:25;;;;;;;6.18;2.72;;;;;;;30.32;26.99;100608.12;5568986;32;34065;-88
2022/07/07 07:13:47;;;;;;;6.55;2.70;;;;;;;30.20;27.89;100615.19;5569128;32;34949;-92
2022/07/07 07:16:50;;;;;;;4.53;2.75;;;;;;;29.45;29.18;100617.31;5568421;32;33800;-89
2022/07/07 07:19:53;;;;;;;3.17;2.62;;;;;;;29.30;28.73;100624.72;5568514;32;33923;-89
2022/07/07 07:22:56;;;;;;;5.95;2.75;;;;;;;29.07;28.44;100612.12;5570648;32;35068;-88
2022/07/07 07:25:59;;;;;;;2.90;2.60;;;;;;;28.43;30.09;100621.78;5574124;32;34251;-89
2022/07/07 07:29:02;;;;;;;5.82;2.85;;;;;;;28.79;29.54;100608.19;5568828;32;34591;-89
2022/07/07 07:32:06;;;;;;;3.60;2.55;;;;;;;28.58;30.13;100619.03;5569220;32;34464;-89
2022/07/07 07:35:09;;;;;;;6.47;3.10;;;;;;;28.85;29.50;100611.22;5556015;32;33445;-89
2022/07/07 07:38:12;;;;;;;4.95;2.95;;;;;;;28.78;29.64;100611.97;5590787;26;33844;-88
2022/07/07 07:41:16;;;;;;;3.20;2.90;;;;;;;28.47;30.99;100610.28;5603234;26;34008;-88
2022/07/07 07:47:42;;;;;;;3.95;2.67;;;;;;;28.46;30.04;100605.88;5568473;32;33862;-88
2022/07/07 07:50:45;;;;;;;4.00;2.90;;;;;;;28.75;30.48;100598.69;5567270;32;34438;-87
2022/07/07 07:53:48;;;;;;;4.68;2.92;;;;;;;29.63;28.57;100590.59;5567378;32;34396;-88
2022/07/07 07:56:51;;;;;;;6.28;2.75;;;;;;;30.01;27.63;100594.88;5570372;32;33742;-88
2022/07/07 07:59:54;;;;;;;4.78;2.75;;;;;;;29.77;27.66;100595.09;5556696;32;33584;-87
2022/07/07 08:02:56;;;;;;;7.00;3.10;;;;;;;29.37;28.75;100598.34;5571779;32;34020;-87
2022/07/07 08:05:59;;;;;;;4.65;3.20;;;;;;;29.97;28.89;100598.00;5567326;32;33809;-87
2022/07/07 08:09:02;;;;;;;9.23;2.78;;;;;;;29.36;27.76;100599.34;5566837;32;33611;-87
2022/07/07 08:12:06;;;;;;;2.67;2.47;;;;;;;29.40;28.41;100597.06;5566805;32;34323;-88
2022/07/07 08:15:09;;;;;;;2.60;2.30;;;;;;;29.47;26.66;100598.00;5567347;32;34201;-88
2022/07/07 08:18:12;;;;;;;5.20;2.33;;;;;;;29.59;26.26;100592.87;5566757;32;33813;-87
2022/07/07 08:21:15;;;;;;;4.40;2.60;;;;;;;30.26;25.57;100596.09;5568340;32;36097;-87
2022/07/07 08:24:18;;;;;;;3.42;2.40;;;;;;;30.18;24.26;100600.88;5570585;32;34076;-88
2022/07/07 08:27:20;;;;;;;3.12;2.10;;;;;;;29.88;26.09;100603.81;5574175;32;33823;-88
2022/07/07 08:30:24;;;;;;;2.42;2.30;;;;;;;29.75;26.38;100597.19;5570950;32;35568;-88
2022/07/07 08:33:26;;;;;;;6.60;2.40;;;;;;;29.24;25.85;100599.03;5568580;32;33685;-87
2022/07/07 08:36:32;;;;;;;2.85;2.20;;;;;;;28.94;26.63;100590.97;5567213;32;33968;-88
2022/07/07 08:39:35;;;;;;;3.97;2.35;;;;;;;28.98;26.41;100592.28;5566835;32;35114;-88
2022/07/07 08:42:39;;;;;;;2.87;1.90;;;;;;;28.98;25.82;100591.41;5566606;32;34521;-88
2022/07/07 08:45:42;;;;;;;5.10;2.50;;;;;;;29.31;24.82;100583.56;5553102;32;32526;-88
2022/07/07 08:48:44;;;;;;;3.05;2.40;;;;;;;29.30;25.61;100590.06;5567308;32;33902;-87
2022/07/07 08:51:47;;;;;;;5.35;2.20;;;;;;;29.31;25.26;100580.84;5566965;32;33759;-88
2022/07/07 08:54:51;;;;;;;3.35;2.50;;;;;;;29.08;25.77;100580.19;5555192;32;32604;-88
2022/07/07 08:57:54;;;;;;;3.87;2.25;;;;;;;29.23;26.24;100580.13;5552661;32;33863;-87
2022/07/07 09:00:57;;;;;;;2.85;2.30;;;;;;;29.45;25.67;100578.22;5566772;32;33516;-87
2022/07/07 09:04:00;;;;;;;4.40;2.45;;;;;;;28.47;26.62;100582.19;5566904;32;34654;-87
2022/07/07 09:07:05;;;;;;;7.40;2.90;;;;;;;29.62;26.23;100570.62;5552707;32;33139;-88
2022/07/07 09:10:08;;;;;;;3.95;2.33;;;;;;;30.66;25.69;100559.84;5567050;32;34040;-87
2022/07/07 09:13:28;;;;;;;5.07;2.45;;;;;;;31.40;22.73;100552.88;5566818;32;35315;-91
2022/07/07 09:16:35;;;;;;;5.87;2.75;;;;;;;31.98;22.72;100565.09;5569541;32;34608;-89
2022/07/07 09:19:38;;;;;;;3.17;2.42;;;;;;;32.08;24.77;100559.16;5568020;32;33867;-88
2022/07/07 09:22:56;;;;;;;3.42;2.37;;;;;;;32.96;21.69;100556.03;5559631;32;34980;-88
2022/07/07 09:26:05;;;;;;;3.62;2.62;;;;;;;32.56;22.50;100559.81;5556618;32;34649;-87
2022/07/07 09:29:13;;;;;;;4.47;2.30;;;;;;;31.64;23.67;100556.88;5549872;32;34759;-88
2022/07/07 09:32:16;;;;;;;3.75;2.60;;;;;;;30.52;23.77;100553.50;5550919;32;35402;-88
2022/07/07 09:38:48;;;;;;;4.37;2.58;;;;;;;29.24;27.13;100563.53;5536757;32;32887;-88
2022/07/07 09:45:42;;;;;;;3.33;2.47;;;;;;;28.17;28.39;100572.13;5395510;30;20103;-87
2022/07/07 09:48:47;;;;;;;7.43;2.80;;;;;;;28.09;27.18;100570.31;5550221;32;33888;-87
2022/07/07 09:51:49;;;;;;;6.15;2.50;;;;;;;27.62;28.43;100566.03;5552272;32;34580;-88
2022/07/07 09:54:53;;;;;;;6.15;2.55;;;;;;;27.30;29.59;100564.22;5551530;32;34268;-88
2022/07/07 09:57:55;;;;;;;2.70;2.50;;;;;;;27.44;29.79;100569.91;5550903;32;34492;-87
2022/07/07 10:00:58;;;;;;;2.95;2.67;;;;;;;27.58;30.56;100571.00;5537183;32;33491;-88
2022/07/07 10:04:05;;;;;;;4.35;2.55;;;;;;;27.22;30.66;100567.03;5550839;32;34232;-90
2022/07/07 10:07:11;;;;;;;5.15;2.85;;;;;;;27.14;31.10;100567.91;5550799;32;35262;-90
2022/07/07 10:10:20;;;;;;;6.25;2.50;;;;;;;26.61;32.01;100567.72;5550885;32;34576;-88
2022/07/07 10:13:23;;;;;;;3.17;2.60;;;;;;;26.68;32.73;100565.09;5550473;32;34350;-87
2022/07/07 10:16:27;;;;;;;6.00;2.70;;;;;;;26.44;32.46;100570.50;5550125;32;35264;-87
2022/07/07 10:26:56;;;;;;;3.17;2.67;;;;;;;26.12;34.64;100561.41;5579057;31;20088;-88
2022/07/07 10:30:00;;;;;;;7.18;2.40;;;;;;;26.05;33.88;100563.13;5572702;32;34325;-88
2022/07/07 10:33:04;;;;;;;7.62;2.47;;;;;;;26.21;33.04;100554.06;5569069;32;33715;-88
2022/07/07 10:36:07;;;;;;;5.85;2.70;;;;;;;26.22;33.36;100561.22;5569751;31;34828;-88
2022/07/07 10:39:10;;;;;;;3.03;2.80;;;;;;;26.40;32.12;100554.72;5591504;26;33867;-87
2022/07/07 10:42:16;;;;;;;3.22;2.35;;;;;;;26.54;31.96;100558.56;5556349;32;33414;-88
2022/07/07 10:45:19;;;;;;;2.55;2.30;;;;;;;26.69;32.52;100566.81;5569832;32;33557;-88
2022/07/07 10:48:44;;;;;;;3.47;2.60;;;;;;;27.00;31.61;100560.56;5594024;26;35279;-88
2022/07/07 10:52:15;;;;;;;2.60;2.40;;;;;;;27.31;31.48;100556.91;5569217;32;34331;-88
2022/07/07 10:55:18;;;;;;;4.10;2.45;;;;;;;27.69;30.58;100543.31;5597766;26;35135;-87
2022/07/07 10:58:52;;;;;;;2.95;2.30;;;;;;;27.92;30.03;100542.41;5578599;26;33923;-88
2022/07/07 11:02:01;;;;;;;3.67;2.50;;;;;;;28.77;29.67;100533.84;5528772;32;33715;-88
2022/07/07 11:05:25;;;;;;;2.85;2.62;;;;;;;29.08;28.15;100529.16;5530833;32;33499;-88
2022/07/07 11:08:36;;;;;;;4.72;2.28;;;;;;;28.50;29.15;100519.91;5569465;26;33969;-88
2022/07/07 11:11:40;;;;;;;7.22;2.20;;;;;;;28.44;30.16;100520.66;5568920;26;32650;-88
2022/07/07 11:14:43;;;;;;;2.40;2.30;;;;;;;28.02;30.35;100523.03;5549614;32;33903;-88
2022/07/07 11:17:57;;;;;;;10.55;5.25;;;;;;;27.74;30.61;100520.12;5535673;32;32932;-88
2022/07/07 11:21:03;;;;;;;19.55;8.93;;;;;;;27.66;30.88;100508.25;5549846;32;34632;-88
2022/07/07 11:24:23;;;;;;;5.40;3.10;;;;;;;27.74;31.40;100504.59;5570296;26;33039;-89
2022/07/07 11:31:06;;;;;;;2.72;2.30;;;;;;;27.57;31.91;100501.19;4113905;29;20061;-87
2022/07/07 11:34:12;;;;;;;2.67;2.47;;;;;;;27.33;31.87;100508.56;5573672;31;34068;-88
2022/07/07 11:37:22;;;;;;;2.60;2.40;;;;;;;27.45;32.03;100493.47;5569407;32;34297;-87
2022/07/07 11:40:25;;;;;;;12.65;5.72;;;;;;;27.70;32.27;100497.81;5569133;32;34373;-88
2022/07/07 11:43:28;;;;;;;3.70;2.72;;;;;;;27.91;32.13;100488.06;5568100;32;34756;-86
2022/07/07 11:46:32;;;;;;;9.30;4.90;;;;;;;28.10;31.28;100486.62;5567802;32;33998;-86
2022/07/07 11:49:35;;;;;;;4.12;2.90;;;;;;;27.92;31.62;100485.16;5569169;32;33853;-87
2022/07/07 11:52:38;;;;;;;3.97;2.70;;;;;;;28.00;31.75;100480.66;5554598;32;33142;-87
2022/07/07 11:55:42;;;;;;;3.92;2.50;;;;;;;28.08;31.55;100481.41;5554340;32;32604;-87
2022/07/07 11:58:56;;;;;;;6.75;2.67;;;;;;;27.96;31.94;100469.28;5567757;32;33662;-87
2022/07/07 12:01:59;;;;;;;2.85;2.45;;;;;;;28.11;32.00;100472.00;5569760;32;35121;-87
2022/07/07 12:05:09;;;;;;;3.20;2.33;;;;;;;28.92;31.29;100472.94;5568108;32;33891;-87
2022/07/07 12:08:14;;;;;;;2.60;2.40;;;;;;;28.94;30.95;100468.09;5568440;32;34937;-87
2022/07/07 12:11:20;;;;;;;5.37;2.37;;;;;;;29.01;30.25;100462.72;5568200;32;34363;-87
